DTTJ

Djerba Zarzis International Airport

Djerba, Tunisia
METAR DTTJ 191800Z 09010KT 9999 FEW020 29/18 Q1016 NOSIG
Observed Flight Rules
Sep-19 @ 18:00 UTC (47 minutes ago) Visual Flight Rules
Wind Visibility Clouds
90° at 10 knots 10,000+ meters
  • Few at 2,000' AGL
Temperatures Readings
Current 29°C / 84°F
Dewpoint 18°C / 64°F
Humidity 51%
Altimeter 30" Hg
Pressure 1016 hPa
Elevation 4
METAR DTTJ 191800Z 09010KT 9999 FEW020 29/18 Q1016 NOSIG
Observed Flight Rules
Sep-19 @ 18:00 UTC
(47 minutes ago)
VFR
Wind Visibility
90° at 10 knots 10,000+ meters
Clouds
  • Few at 2,000' AGL
Temperature Dewpoint
29°C / 84°F 18°C / 64°F
Humidity Altimeter Pressure
51% 30" Hg 1016 hPa